sensor_id;sensor_type;location;lat;lon;timestamp;temperature;humidity
14049;DHT22;7099;53.922;10.728;2022-11-20T00:03:35;3.00;99.90
14049;DHT22;7099;53.922;10.728;2022-11-20T00:07:41;3.00;99.90
14049;DHT22;7099;53.922;10.728;2022-11-20T00:11:45;3.00;99.90
14049;DHT22;7099;53.922;10.728;2022-11-20T00:15:57;2.90;99.90
14049;DHT22;7099;53.922;10.728;2022-11-20T00:20:04;3.00;99.90
14049;DHT22;7099;53.922;10.728;2022-11-20T00:24:09;3.00;99.90
14049;DHT22;7099;53.922;10.728;2022-11-20T00:28:15;3.00;99.90
14049;DHT22;7099;53.922;10.728;2022-11-20T00:32:19;3.00;99.90
14049;DHT22;7099;53.922;10.728;2022-11-20T00:36:26;3.10;99.90
14049;DHT22;7099;53.922;10.728;2022-11-20T00:40:32;3.10;99.90
14049;DHT22;7099;53.922;10.728;2022-11-20T00:44:37;3.10;99.90
14049;DHT22;7099;53.922;10.728;2022-11-20T00:48:42;3.10;99.90
14049;DHT22;7099;53.922;10.728;2022-11-20T00:52:48;3.10;99.90
14049;DHT22;7099;53.922;10.728;2022-11-20T00:56:53;3.10;99.90
14049;DHT22;7099;53.922;10.728;2022-11-20T01:01:03;3.10;99.90
14049;DHT22;7099;53.922;10.728;2022-11-20T01:05:10;3.20;99.90
14049;DHT22;7099;53.922;10.728;2022-11-20T01:09:15;3.10;99.90
14049;DHT22;7099;53.922;10.728;2022-11-20T01:13:20;3.10;99.90
14049;DHT22;7099;53.922;10.728;2022-11-20T01:17:42;3.10;99.90
14049;DHT22;7099;53.922;10.728;2022-11-20T01:21:49;3.10;99.90
14049;DHT22;7099;53.922;10.728;2022-11-20T01:25:56;3.00;99.90
14049;DHT22;7099;53.922;10.728;2022-11-20T01:30:01;3.10;99.90
14049;DHT22;7099;53.922;10.728;2022-11-20T01:34:10;3.10;99.90
14049;DHT22;7099;53.922;10.728;2022-11-20T01:38:17;3.00;99.90
14049;DHT22;7099;53.922;10.728;2022-11-20T01:42:22;3.10;99.90
14049;DHT22;7099;53.922;10.728;2022-11-20T01:46:56;3.00;99.90
14049;DHT22;7099;53.922;10.728;2022-11-20T01:51:05;3.00;99.90
14049;DHT22;7099;53.922;10.728;2022-11-20T01:55:15;3.00;99.90
14049;DHT22;7099;53.922;10.728;2022-11-20T01:59:23;3.00;99.90
14049;DHT22;7099;53.922;10.728;2022-11-20T02:03:30;2.90;99.90
14049;DHT22;7099;53.922;10.728;2022-11-20T02:07:35;2.90;99.90
14049;DHT22;7099;53.922;10.728;2022-11-20T02:11:40;2.90;99.90
14049;DHT22;7099;53.922;10.728;2022-11-20T02:15:46;3.00;99.90
14049;DHT22;7099;53.922;10.728;2022-11-20T02:19:51;2.90;99.90
14049;DHT22;7099;53.922;10.728;2022-11-20T02:28:18;3.00;99.90
14049;DHT22;7099;53.922;10.728;2022-11-20T02:32:31;2.90;99.90
14049;DHT22;7099;53.922;10.728;2022-11-20T02:36:44;3.00;99.90
14049;DHT22;7099;53.922;10.728;2022-11-20T02:40:50;2.90;99.90
14049;DHT22;7099;53.922;10.728;2022-11-20T02:44:59;2.90;99.90
14049;DHT22;7099;53.922;10.728;2022-11-20T02:49:04;2.90;99.90
14049;DHT22;7099;53.922;10.728;2022-11-20T02:53:09;2.90;99.90
14049;DHT22;7099;53.922;10.728;2022-11-20T02:57:14;2.90;99.90
14049;DHT22;7099;53.922;10.728;2022-11-20T03:01:20;3.00;99.90
14049;DHT22;7099;53.922;10.728;2022-11-20T03:05:25;3.00;99.90
14049;DHT22;7099;53.922;10.728;2022-11-20T03:09:30;3.00;99.90
14049;DHT22;7099;53.922;10.728;2022-11-20T03:13:35;3.00;99.90
14049;DHT22;7099;53.922;10.728;2022-11-20T03:17:40;3.00;99.90
14049;DHT22;7099;53.922;10.728;2022-11-20T03:21:45;3.00;99.90
14049;DHT22;7099;53.922;10.728;2022-11-20T03:25:50;3.00;99.90
14049;DHT22;7099;53.922;10.728;2022-11-20T03:29:55;3.00;99.90
14049;DHT22;7099;53.922;10.728;2022-11-20T03:34:00;2.90;99.90
14049;DHT22;7099;53.922;10.728;2022-11-20T03:38:06;3.00;99.90
14049;DHT22;7099;53.922;10.728;2022-11-20T03:42:11;2.90;99.90
14049;DHT22;7099;53.922;10.728;2022-11-20T03:46:34;2.90;99.90
14049;DHT22;7099;53.922;10.728;2022-11-20T03:50:39;2.90;99.90
14049;DHT22;7099;53.922;10.728;2022-11-20T03:54:44;2.90;99.90
14049;DHT22;7099;53.922;10.728;2022-11-20T03:58:49;2.90;99.90
14049;DHT22;7099;53.922;10.728;2022-11-20T04:02:58;2.90;99.90
14049;DHT22;7099;53.922;10.728;2022-11-20T04:07:04;2.90;99.90
14049;DHT22;7099;53.922;10.728;2022-11-20T04:15:14;2.90;99.90
14049;DHT22;7099;53.922;10.728;2022-11-20T04:19:19;2.90;99.90
14049;DHT22;7099;53.922;10.728;2022-11-20T04:23:25;2.90;99.90
14049;DHT22;7099;53.922;10.728;2022-11-20T04:27:32;2.90;99.90
14049;DHT22;7099;53.922;10.728;2022-11-20T04:31:37;2.90;99.90
14049;DHT22;7099;53.922;10.728;2022-11-20T04:35:43;2.90;99.90
14049;DHT22;7099;53.922;10.728;2022-11-20T04:39:51;2.90;99.90
14049;DHT22;7099;53.922;10.728;2022-11-20T04:43:58;2.90;99.90
14049;DHT22;7099;53.922;10.728;2022-11-20T04:48:06;2.90;99.90
14049;DHT22;7099;53.922;10.728;2022-11-20T04:52:11;2.90;99.90
14049;DHT22;7099;53.922;10.728;2022-11-20T04:56:16;2.90;99.90
14049;DHT22;7099;53.922;10.728;2022-11-20T05:00:21;2.80;99.90
14049;DHT22;7099;53.922;10.728;2022-11-20T05:04:26;2.80;99.90
14049;DHT22;7099;53.922;10.728;2022-11-20T05:08:32;2.80;99.90
14049;DHT22;7099;53.922;10.728;2022-11-20T05:12:37;2.70;99.90
14049;DHT22;7099;53.922;10.728;2022-11-20T05:16:42;2.70;99.90
14049;DHT22;7099;53.922;10.728;2022-11-20T05:20:54;2.70;99.90
14049;DHT22;7099;53.922;10.728;2022-11-20T05:25:00;2.70;99.90
14049;DHT22;7099;53.922;10.728;2022-11-20T05:29:05;2.70;99.90
14049;DHT22;7099;53.922;10.728;2022-11-20T05:33:10;2.70;99.90
14049;DHT22;7099;53.922;10.728;2022-11-20T05:37:15;2.60;99.90
14049;DHT22;7099;53.922;10.728;2022-11-20T05:41:20;2.60;99.90
14049;DHT22;7099;53.922;10.728;2022-11-20T05:45:25;2.60;99.90
14049;DHT22;7099;53.922;10.728;2022-11-20T05:49:30;2.60;99.90
14049;DHT22;7099;53.922;10.728;2022-11-20T05:53:36;2.60;99.90
14049;DHT22;7099;53.922;10.728;2022-11-20T05:57:44;2.50;99.90
14049;DHT22;7099;53.922;10.728;2022-11-20T06:01:49;2.60;99.90
14049;DHT22;7099;53.922;10.728;2022-11-20T06:05:54;2.60;99.90
14049;DHT22;7099;53.922;10.728;2022-11-20T06:09:59;2.60;99.90
14049;DHT22;7099;53.922;10.728;2022-11-20T06:14:04;2.50;99.90
14049;DHT22;7099;53.922;10.728;2022-11-20T06:18:09;2.50;99.90
14049;DHT22;7099;53.922;10.728;2022-11-20T06:22:14;2.50;99.90
14049;DHT22;7099;53.922;10.728;2022-11-20T06:26:24;2.50;99.90
14049;DHT22;7099;53.922;10.728;2022-11-20T06:30:31;2.50;99.90
14049;DHT22;7099;53.922;10.728;2022-11-20T06:34:36;2.50;99.90
14049;DHT22;7099;53.922;10.728;2022-11-20T06:38:41;2.50;99.90
14049;DHT22;7099;53.922;10.728;2022-11-20T06:42:46;2.50;99.90
14049;DHT22;7099;53.922;10.728;2022-11-20T06:46:51;2.40;99.90
14049;DHT22;7099;53.922;10.728;2022-11-20T06:50:57;2.40;99.90
14049;DHT22;7099;53.922;10.728;2022-11-20T06:55:02;2.40;99.90
14049;DHT22;7099;53.922;10.728;2022-11-20T06:59:08;2.40;99.90
14049;DHT22;7099;53.922;10.728;2022-11-20T07:03:13;2.50;99.90
14049;DHT22;7099;53.922;10.728;2022-11-20T07:07:17;2.50;99.90
14049;DHT22;7099;53.922;10.728;2022-11-20T07:11:23;2.50;99.90
14049;DHT22;7099;53.922;10.728;2022-11-20T07:15:28;2.50;99.90
14049;DHT22;7099;53.922;10.728;2022-11-20T07:19:33;2.50;99.90
14049;DHT22;7099;53.922;10.728;2022-11-20T07:23:38;2.50;99.90
14049;DHT22;7099;53.922;10.728;2022-11-20T07:27:43;2.50;99.90
14049;DHT22;7099;53.922;10.728;2022-11-20T07:31:47;2.50;99.90
14049;DHT22;7099;53.922;10.728;2022-11-20T07:35:53;2.60;99.90
14049;DHT22;7099;53.922;10.728;2022-11-20T07:39:57;2.60;99.90
14049;DHT22;7099;53.922;10.728;2022-11-20T07:44:02;2.60;99.90
14049;DHT22;7099;53.922;10.728;2022-11-20T07:48:07;2.60;99.90
14049;DHT22;7099;53.922;10.728;2022-11-20T07:52:12;2.60;99.90
14049;DHT22;7099;53.922;10.728;2022-11-20T07:56:18;2.60;99.90
14049;DHT22;7099;53.922;10.728;2022-11-20T08:00:23;2.70;99.90
14049;DHT22;7099;53.922;10.728;2022-11-20T08:04:29;2.70;99.90
14049;DHT22;7099;53.922;10.728;2022-11-20T08:08:34;2.70;99.90
14049;DHT22;7099;53.922;10.728;2022-11-20T08:12:46;2.70;99.90
14049;DHT22;7099;53.922;10.728;2022-11-20T08:17:11;2.70;99.90
14049;DHT22;7099;53.922;10.728;2022-11-20T08:21:16;2.80;99.90
14049;DHT22;7099;53.922;10.728;2022-11-20T08:25:21;2.80;99.90
14049;DHT22;7099;53.922;10.728;2022-11-20T08:29:27;2.80;99.90
14049;DHT22;7099;53.922;10.728;2022-11-20T08:33:32;2.80;99.90
14049;DHT22;7099;53.922;10.728;2022-11-20T08:37:37;2.80;99.90
14049;DHT22;7099;53.922;10.728;2022-11-20T08:41:45;2.80;99.90
14049;DHT22;7099;53.922;10.728;2022-11-20T08:45:50;2.80;99.90
14049;DHT22;7099;53.922;10.728;2022-11-20T08:49:55;2.80;99.90
14049;DHT22;7099;53.922;10.728;2022-11-20T08:54:00;2.80;99.90
14049;DHT22;7099;53.922;10.728;2022-11-20T08:58:08;2.80;99.90
14049;DHT22;7099;53.922;10.728;2022-11-20T09:02:13;2.70;99.90
14049;DHT22;7099;53.922;10.728;2022-11-20T09:06:18;2.70;99.90
14049;DHT22;7099;53.922;10.728;2022-11-20T09:10:23;2.80;99.90
14049;DHT22;7099;53.922;10.728;2022-11-20T09:14:28;2.80;99.90
14049;DHT22;7099;53.922;10.728;2022-11-20T09:18:35;2.80;99.90
14049;DHT22;7099;53.922;10.728;2022-11-20T09:22:41;2.80;99.90
14049;DHT22;7099;53.922;10.728;2022-11-20T09:26:46;2.90;99.90
14049;DHT22;7099;53.922;10.728;2022-11-20T09:30:51;2.90;99.90
14049;DHT22;7099;53.922;10.728;2022-11-20T09:34:56;2.90;99.90
14049;DHT22;7099;53.922;10.728;2022-11-20T09:39:01;2.90;99.90
14049;DHT22;7099;53.922;10.728;2022-11-20T09:43:15;2.90;99.90
14049;DHT22;7099;53.922;10.728;2022-11-20T09:56:03;3.10;99.90
14049;DHT22;7099;53.922;10.728;2022-11-20T10:00:11;3.10;99.90
14049;DHT22;7099;53.922;10.728;2022-11-20T10:04:19;3.20;99.90
14049;DHT22;7099;53.922;10.728;2022-11-20T10:08:28;3.20;99.90
14049;DHT22;7099;53.922;10.728;2022-11-20T10:17:53;3.20;99.90
14049;DHT22;7099;53.922;10.728;2022-11-20T10:31:40;3.30;99.90
14049;DHT22;7099;53.922;10.728;2022-11-20T10:40:40;3.50;99.90
14049;DHT22;7099;53.922;10.728;2022-11-20T10:44:52;3.50;99.90
14049;DHT22;7099;53.922;10.728;2022-11-20T10:49:15;3.50;99.90
14049;DHT22;7099;53.922;10.728;2022-11-20T11:02:23;3.60;99.90
14049;DHT22;7099;53.922;10.728;2022-11-20T11:06:43;3.70;99.90
14049;DHT22;7099;53.922;10.728;2022-11-20T11:10:57;3.70;99.90
14049;DHT22;7099;53.922;10.728;2022-11-20T11:15:03;3.70;99.90
14049;DHT22;7099;53.922;10.728;2022-11-20T11:19:13;3.70;99.90
14049;DHT22;7099;53.922;10.728;2022-11-20T11:23:39;3.70;99.90
14049;DHT22;7099;53.922;10.728;2022-11-20T11:27:50;3.80;99.90
14049;DHT22;7099;53.922;10.728;2022-11-20T11:32:12;3.80;99.90
14049;DHT22;7099;53.922;10.728;2022-11-20T11:36:22;3.80;99.90
14049;DHT22;7099;53.922;10.728;2022-11-20T11:40:31;3.70;99.90
14049;DHT22;7099;53.922;10.728;2022-11-20T11:44:44;3.70;99.90
14049;DHT22;7099;53.922;10.728;2022-11-20T11:53:18;3.90;99.90
14049;DHT22;7099;53.922;10.728;2022-11-20T12:01:46;3.90;99.90
14049;DHT22;7099;53.922;10.728;2022-11-20T12:06:15;3.80;99.90
14049;DHT22;7099;53.922;10.728;2022-11-20T12:15:25;3.80;99.90
14049;DHT22;7099;53.922;10.728;2022-11-20T12:19:34;3.80;99.90
14049;DHT22;7099;53.922;10.728;2022-11-20T12:37:52;3.80;99.90
14049;DHT22;7099;53.922;10.728;2022-11-20T12:47:57;3.80;99.90
14049;DHT22;7099;53.922;10.728;2022-11-20T12:52:35;3.80;99.90
14049;DHT22;7099;53.922;10.728;2022-11-20T12:56:52;3.80;99.90
14049;DHT22;7099;53.922;10.728;2022-11-20T13:01:24;3.70;99.90
14049;DHT22;7099;53.922;10.728;2022-11-20T13:05:59;3.70;99.90
14049;DHT22;7099;53.922;10.728;2022-11-20T13:10:42;3.70;99.90
14049;DHT22;7099;53.922;10.728;2022-11-20T13:19:18;3.90;99.90
14049;DHT22;7099;53.922;10.728;2022-11-20T13:23:28;3.90;99.90
14049;DHT22;7099;53.922;10.728;2022-11-20T13:27:32;4.00;99.90
14049;DHT22;7099;53.922;10.728;2022-11-20T13:31:42;4.20;99.90
14049;DHT22;7099;53.922;10.728;2022-11-20T13:36:24;4.40;99.90
14049;DHT22;7099;53.922;10.728;2022-11-20T13:40:33;4.30;99.90
14049;DHT22;7099;53.922;10.728;2022-11-20T13:44:42;4.20;99.90
14049;DHT22;7099;53.922;10.728;2022-11-20T13:48:52;4.10;99.90
14049;DHT22;7099;53.922;10.728;2022-11-20T13:53:27;4.00;99.90
14049;DHT22;7099;53.922;10.728;2022-11-20T14:02:17;3.90;99.90
14049;DHT22;7099;53.922;10.728;2022-11-20T14:06:34;3.80;99.90
14049;DHT22;7099;53.922;10.728;2022-11-20T14:10:43;3.80;99.90
14049;DHT22;7099;53.922;10.728;2022-11-20T14:14:51;3.70;99.90
14049;DHT22;7099;53.922;10.728;2022-11-20T14:19:08;3.70;99.90
14049;DHT22;7099;53.922;10.728;2022-11-20T14:23:28;3.60;99.90
14049;DHT22;7099;53.922;10.728;2022-11-20T14:27:36;3.60;99.90
14049;DHT22;7099;53.922;10.728;2022-11-20T14:31:43;3.50;99.90
14049;DHT22;7099;53.922;10.728;2022-11-20T14:35:56;3.40;99.90
14049;DHT22;7099;53.922;10.728;2022-11-20T14:40:02;3.40;99.90
14049;DHT22;7099;53.922;10.728;2022-11-20T14:44:09;3.40;99.90
14049;DHT22;7099;53.922;10.728;2022-11-20T14:48:15;3.40;99.90
14049;DHT22;7099;53.922;10.728;2022-11-20T14:52:25;3.30;99.90
14049;DHT22;7099;53.922;10.728;2022-11-20T14:56:31;3.30;99.90
14049;DHT22;7099;53.922;10.728;2022-11-20T15:00:36;3.30;99.90
14049;DHT22;7099;53.922;10.728;2022-11-20T15:04:46;3.30;99.90
14049;DHT22;7099;53.922;10.728;2022-11-20T15:08:55;3.30;99.90
14049;DHT22;7099;53.922;10.728;2022-11-20T15:13:06;3.20;99.90
14049;DHT22;7099;53.922;10.728;2022-11-20T15:17:16;3.20;99.90
14049;DHT22;7099;53.922;10.728;2022-11-20T15:21:22;3.10;99.90
14049;DHT22;7099;53.922;10.728;2022-11-20T15:25:27;3.10;99.90
14049;DHT22;7099;53.922;10.728;2022-11-20T15:29:32;3.00;99.90
14049;DHT22;7099;53.922;10.728;2022-11-20T15:33:37;2.90;99.90
14049;DHT22;7099;53.922;10.728;2022-11-20T15:37:42;2.90;99.90
14049;DHT22;7099;53.922;10.728;2022-11-20T15:41:47;2.80;99.90
14049;DHT22;7099;53.922;10.728;2022-11-20T15:46:16;2.70;99.90
14049;DHT22;7099;53.922;10.728;2022-11-20T15:50:32;2.60;99.90
14049;DHT22;7099;53.922;10.728;2022-11-20T15:54:42;2.50;99.90
14049;DHT22;7099;53.922;10.728;2022-11-20T15:58:47;2.40;99.90
14049;DHT22;7099;53.922;10.728;2022-11-20T16:02:52;2.40;99.90
14049;DHT22;7099;53.922;10.728;2022-11-20T16:06:57;2.20;99.90
14049;DHT22;7099;53.922;10.728;2022-11-20T16:11:02;2.20;99.90
14049;DHT22;7099;53.922;10.728;2022-11-20T16:15:08;2.10;99.90
14049;DHT22;7099;53.922;10.728;2022-11-20T16:19:32;2.00;99.90
14049;DHT22;7099;53.922;10.728;2022-11-20T16:23:37;2.00;99.90
14049;DHT22;7099;53.922;10.728;2022-11-20T16:27:42;1.90;99.90
14049;DHT22;7099;53.922;10.728;2022-11-20T16:31:47;1.80;99.90
14049;DHT22;7099;53.922;10.728;2022-11-20T16:35:52;1.80;99.90
14049;DHT22;7099;53.922;10.728;2022-11-20T16:39:57;1.80;99.90
14049;DHT22;7099;53.922;10.728;2022-11-20T16:44:07;1.70;99.90
14049;DHT22;7099;53.922;10.728;2022-11-20T16:48:15;1.80;99.90
14049;DHT22;7099;53.922;10.728;2022-11-20T16:52:20;1.70;99.90
14049;DHT22;7099;53.922;10.728;2022-11-20T16:56:26;1.60;99.90
14049;DHT22;7099;53.922;10.728;2022-11-20T17:00:31;1.60;99.90
14049;DHT22;7099;53.922;10.728;2022-11-20T17:04:36;1.50;99.90
14049;DHT22;7099;53.922;10.728;2022-11-20T17:08:41;1.50;99.90
14049;DHT22;7099;53.922;10.728;2022-11-20T17:12:46;1.40;99.90
14049;DHT22;7099;53.922;10.728;2022-11-20T17:16:51;1.40;99.90
14049;DHT22;7099;53.922;10.728;2022-11-20T17:20:57;1.40;99.90
14049;DHT22;7099;53.922;10.728;2022-11-20T17:25:04;1.40;99.90
14049;DHT22;7099;53.922;10.728;2022-11-20T17:29:15;1.40;99.90
14049;DHT22;7099;53.922;10.728;2022-11-20T17:33:21;1.30;99.90
14049;DHT22;7099;53.922;10.728;2022-11-20T17:37:26;1.30;99.90
14049;DHT22;7099;53.922;10.728;2022-11-20T17:41:30;1.30;99.90
14049;DHT22;7099;53.922;10.728;2022-11-20T17:45:36;1.20;99.90
14049;DHT22;7099;53.922;10.728;2022-11-20T17:49:41;1.10;99.90
14049;DHT22;7099;53.922;10.728;2022-11-20T17:53:49;1.10;99.90
14049;DHT22;7099;53.922;10.728;2022-11-20T17:57:55;1.10;99.90
14049;DHT22;7099;53.922;10.728;2022-11-20T18:02:01;1.00;99.90
14049;DHT22;7099;53.922;10.728;2022-11-20T18:06:16;1.00;99.90
14049;DHT22;7099;53.922;10.728;2022-11-20T18:10:24;1.00;99.90
14049;DHT22;7099;53.922;10.728;2022-11-20T18:14:32;1.00;99.90
14049;DHT22;7099;53.922;10.728;2022-11-20T18:18:38;0.90;99.90
14049;DHT22;7099;53.922;10.728;2022-11-20T18:22:43;0.90;99.90
14049;DHT22;7099;53.922;10.728;2022-11-20T18:26:48;0.80;99.90
14049;DHT22;7099;53.922;10.728;2022-11-20T18:30:53;0.80;99.90
14049;DHT22;7099;53.922;10.728;2022-11-20T18:34:58;0.80;99.90
14049;DHT22;7099;53.922;10.728;2022-11-20T18:39:03;0.70;99.90
14049;DHT22;7099;53.922;10.728;2022-11-20T18:43:10;0.70;99.90
14049;DHT22;7099;53.922;10.728;2022-11-20T18:47:35;0.70;99.90
14049;DHT22;7099;53.922;10.728;2022-11-20T18:51:41;0.60;99.90
14049;DHT22;7099;53.922;10.728;2022-11-20T18:55:49;0.50;99.90
14049;DHT22;7099;53.922;10.728;2022-11-20T18:59:55;0.50;99.90
14049;DHT22;7099;53.922;10.728;2022-11-20T19:04:12;0.50;99.90
14049;DHT22;7099;53.922;10.728;2022-11-20T19:08:18;0.40;99.90
14049;DHT22;7099;53.922;10.728;2022-11-20T19:12:23;0.40;99.90
14049;DHT22;7099;53.922;10.728;2022-11-20T19:16:28;0.30;99.90
14049;DHT22;7099;53.922;10.728;2022-11-20T19:20:33;0.20;99.90
14049;DHT22;7099;53.922;10.728;2022-11-20T19:24:38;0.20;99.90
14049;DHT22;7099;53.922;10.728;2022-11-20T19:28:44;0.10;99.90
14049;DHT22;7099;53.922;10.728;2022-11-20T19:32:49;0.10;99.90
14049;DHT22;7099;53.922;10.728;2022-11-20T19:36:54;0.10;99.90
14049;DHT22;7099;53.922;10.728;2022-11-20T19:40:59;0.00;99.90
14049;DHT22;7099;53.922;10.728;2022-11-20T19:45:04;0.00;99.90
14049;DHT22;7099;53.922;10.728;2022-11-20T19:49:12;0.00;99.90
14049;DHT22;7099;53.922;10.728;2022-11-20T19:53:17;0.00;99.90
14049;DHT22;7099;53.922;10.728;2022-11-20T19:57:22;-0.10;99.90
14049;DHT22;7099;53.922;10.728;2022-11-20T20:01:29;-0.10;99.90
14049;DHT22;7099;53.922;10.728;2022-11-20T20:05:34;-0.10;99.90
14049;DHT22;7099;53.922;10.728;2022-11-20T20:09:39;-0.20;99.90
14049;DHT22;7099;53.922;10.728;2022-11-20T20:13:45;-0.20;99.90
14049;DHT22;7099;53.922;10.728;2022-11-20T20:17:51;-0.20;99.90
14049;DHT22;7099;53.922;10.728;2022-11-20T20:21:57;-0.30;99.90
14049;DHT22;7099;53.922;10.728;2022-11-20T20:26:03;-0.30;99.90
14049;DHT22;7099;53.922;10.728;2022-11-20T20:30:09;-0.40;99.90
14049;DHT22;7099;53.922;10.728;2022-11-20T20:34:15;-0.40;99.90
14049;DHT22;7099;53.922;10.728;2022-11-20T20:38:20;-0.40;99.90
14049;DHT22;7099;53.922;10.728;2022-11-20T20:42:25;-0.50;99.90
14049;DHT22;7099;53.922;10.728;2022-11-20T20:46:30;-0.60;99.90
14049;DHT22;7099;53.922;10.728;2022-11-20T20:50:35;-0.60;99.90
14049;DHT22;7099;53.922;10.728;2022-11-20T20:54:40;-0.70;99.90
14049;DHT22;7099;53.922;10.728;2022-11-20T20:58:45;-0.70;99.90
14049;DHT22;7099;53.922;10.728;2022-11-20T21:02:50;-0.70;99.90
14049;DHT22;7099;53.922;10.728;2022-11-20T21:06:55;-0.80;99.90
14049;DHT22;7099;53.922;10.728;2022-11-20T21:11:12;-0.70;99.90
14049;DHT22;7099;53.922;10.728;2022-11-20T21:15:18;-0.80;99.90
14049;DHT22;7099;53.922;10.728;2022-11-20T21:19:23;-0.80;99.90
14049;DHT22;7099;53.922;10.728;2022-11-20T21:23:28;-0.90;99.90
14049;DHT22;7099;53.922;10.728;2022-11-20T21:27:33;-0.90;99.90
14049;DHT22;7099;53.922;10.728;2022-11-20T21:31:38;-0.90;99.90
14049;DHT22;7099;53.922;10.728;2022-11-20T21:35:43;-0.90;99.90
14049;DHT22;7099;53.922;10.728;2022-11-20T21:39:47;-1.00;99.90
14049;DHT22;7099;53.922;10.728;2022-11-20T21:43:56;-1.00;99.90
14049;DHT22;7099;53.922;10.728;2022-11-20T21:48:27;-1.10;99.90
14049;DHT22;7099;53.922;10.728;2022-11-20T21:52:33;-1.10;99.90
14049;DHT22;7099;53.922;10.728;2022-11-20T21:56:38;-1.10;99.90
14049;DHT22;7099;53.922;10.728;2022-11-20T22:00:43;-1.10;99.90
14049;DHT22;7099;53.922;10.728;2022-11-20T22:04:48;-1.20;99.90
14049;DHT22;7099;53.922;10.728;2022-11-20T22:08:53;-1.30;99.90
14049;DHT22;7099;53.922;10.728;2022-11-20T22:12:58;-1.30;99.90
14049;DHT22;7099;53.922;10.728;2022-11-20T22:17:21;-1.30;99.90
14049;DHT22;7099;53.922;10.728;2022-11-20T22:21:46;-1.40;99.90
14049;DHT22;7099;53.922;10.728;2022-11-20T22:25:51;-1.30;99.90
14049;DHT22;7099;53.922;10.728;2022-11-20T22:29:56;-1.30;99.90
14049;DHT22;7099;53.922;10.728;2022-11-20T22:34:01;-1.30;99.90
14049;DHT22;7099;53.922;10.728;2022-11-20T22:38:06;-1.30;99.90
14049;DHT22;7099;53.922;10.728;2022-11-20T22:42:11;-1.30;99.90
14049;DHT22;7099;53.922;10.728;2022-11-20T22:46:17;-1.30;99.90
14049;DHT22;7099;53.922;10.728;2022-11-20T22:50:22;-1.30;99.90
14049;DHT22;7099;53.922;10.728;2022-11-20T22:54:27;-1.20;99.90
14049;DHT22;7099;53.922;10.728;2022-11-20T22:58:33;-1.30;99.90
14049;DHT22;7099;53.922;10.728;2022-11-20T23:02:45;-1.20;99.90
14049;DHT22;7099;53.922;10.728;2022-11-20T23:06:50;-1.20;99.90
14049;DHT22;7099;53.922;10.728;2022-11-20T23:10:59;-1.20;99.90
14049;DHT22;7099;53.922;10.728;2022-11-20T23:15:06;-1.30;99.90
14049;DHT22;7099;53.922;10.728;2022-11-20T23:19:12;-1.30;99.90
14049;DHT22;7099;53.922;10.728;2022-11-20T23:23:18;-1.30;99.90
14049;DHT22;7099;53.922;10.728;2022-11-20T23:27:23;-1.30;99.90
14049;DHT22;7099;53.922;10.728;2022-11-20T23:31:33;-1.30;99.90
14049;DHT22;7099;53.922;10.728;2022-11-20T23:35:38;-1.30;99.90
14049;DHT22;7099;53.922;10.728;2022-11-20T23:39:43;-1.30;99.90
14049;DHT22;7099;53.922;10.728;2022-11-20T23:43:48;-1.30;99.90
14049;DHT22;7099;53.922;10.728;2022-11-20T23:47:53;-1.30;99.90
14049;DHT22;7099;53.922;10.728;2022-11-20T23:52:00;-1.40;99.90
14049;DHT22;7099;53.922;10.728;2022-11-20T23:56:05;-1.40;99.90
